Pittsburgh, Pennsylvania
Traffic Map
Current Weather Conditions
Pittsburgh, Pennsylvania
Overcast
Overcast
50°
Feels Like: 50°
Wind Chill: 50° Ceiling: 2000
Heat Index: 50° Visibility: 10mi
Dew Point: 44° Wind: 7mph
Humidity: 80% Direction: 70° (ENE)
Pressure: 29.54in Gusts: 0mph
Raw Report DataKAGC 230453Z 07006KT 10SM BKN020 OVC070 10/07 A2954 RMK AO2 RAE22 SLP008 P0001 T01000067 401670089
Traffic Incident Summary
Active as of:
Severity:
Category:
InformationThere was an issue retrieving the traffic information for this location. Please try a different location or try again shortly.
Advertisements
Track Severe Weather on mobile